CKE8 weather

Unity Airport
Unity, Saskatchewan, Canada

Public forecast

Using degrees Celsius for public forecast. Weather courtesy of forecast.io.

Closest aviation weather report (METAR) to Unity Airport

Closest report is North Battleford Airport, 39.4 nm (73.0 km) ENE. Retrieved 2019/12/07 18:20 UTC (23 minutes ago):

CYQW 071820Z AUTO 01013KT 9SM -SN OVC065 M07/M10 A2976 RMK SLP116

Closest aviation forecast (TAF) to Unity Airport

Closest forecast is North Battleford Airport, 39.4 nm (73.0 km) ENE. Retrieved 2019/12/07 18:45 UTC (0 seconds ago):

TAF CYQW 071741Z 0718/0806 35010KT P6SM -SN SCT012 OVC060 TEMPO 0718/0722 2SM -SHSN BKN012 OVC040 FM072200 35010KT P6SM BKN080 BECMG 0801/0803 03008KT RMK FCST BASED ON AUTO OBS NXT FCST BY 080000Z